AAL1220 KPBI-KDFW
Flight info
| Callsign | AAL1220 |
|---|---|
| Flight time | N/A |
| Altitude | 36000 |
| Route | OLAKE3 JAYMC Y280 REDFN EYEKO HRV PNUTS BEREE3 |
| Aircraft | B738/M-SDE2E3FGHIRWXY/LB1 |
Departure
| Time | 2026-04-21 10:20 |
|---|---|
| Airport | Palm Beach International Airport (KPBI) |
Arrival
| Time | N/A |
|---|---|
| Airport | Dallas Fort Worth International Airport (KDFW) |
| Time | Latitude | Longitude | Altitude | Speed | Heading |
|---|---|---|---|---|---|
| 2026-04-21 10:01 | 26.68559 | -80.09024 | 19 ft | 0 kts | 93° |
| 2026-04-21 10:11 | 26.68559 | -80.09029 | 19 ft | 2 kts | 94° |
| 2026-04-21 10:11 | 26.68560 | -80.09045 | 19 ft | 2 kts | 93° |
| 2026-04-21 10:12 | 26.68561 | -80.09062 | 19 ft | 2 kts | 93° |
| 2026-04-21 10:12 | 26.68567 | -80.09078 | 19 ft | 2 kts | 133° |
| 2026-04-21 10:12 | 26.68579 | -80.09087 | 19 ft | 2 kts | 166° |
| 2026-04-21 10:12 | 26.68587 | -80.09089 | 19 ft | 1 kts | 183° |
| 2026-04-21 10:13 | 26.68593 | -80.09088 | 19 ft | 0 kts | 182° |
| 2026-04-21 10:15 | 26.68591 | -80.09088 | 19 ft | 1 kts | 182° |
| 2026-04-21 10:15 | 26.68548 | -80.09092 | 19 ft | 10 kts | 188° |
| 2026-04-21 10:16 | 26.68462 | -80.09104 | 19 ft | 9 kts | 209° |
| 2026-04-21 10:16 | 26.68421 | -80.09154 | 19 ft | 8 kts | 225° |
| 2026-04-21 10:16 | 26.68372 | -80.09221 | 19 ft | 12 kts | 246° |
| 2026-04-21 10:16 | 26.68366 | -80.09335 | 19 ft | 16 kts | 273° |
| 2026-04-21 10:17 | 26.68373 | -80.09483 | 19 ft | 20 kts | 273° |
| 2026-04-21 10:17 | 26.68382 | -80.09660 | 19 ft | 24 kts | 272° |
| 2026-04-21 10:17 | 26.68390 | -80.09860 | 19 ft | 26 kts | 273° |
| 2026-04-21 10:17 | 26.68398 | -80.10057 | 19 ft | 24 kts | 272° |
| 2026-04-21 10:18 | 26.68407 | -80.10246 | 19 ft | 24 kts | 273° |
| 2026-04-21 10:18 | 26.68416 | -80.10424 | 21 ft | 21 kts | 273° |
| 2026-04-21 10:18 | 26.68422 | -80.10586 | 22 ft | 20 kts | 273° |
| 2026-04-21 10:18 | 26.68429 | -80.10732 | 22 ft | 15 kts | 271° |
| 2026-04-21 10:19 | 26.68398 | -80.10818 | 22 ft | 11 kts | 207° |
| 2026-04-21 10:19 | 26.68330 | -80.10832 | 22 ft | 5 kts | 169° |
| 2026-04-21 10:19 | 26.68321 | -80.10800 | 22 ft | 4 kts | 87° |
| 2026-04-21 10:19 | 26.68317 | -80.10707 | 22 ft | 32 kts | 93° |
| 2026-04-21 10:20 | 26.68292 | -80.10181 | 20 ft | 102 kts | 92° |
| 2026-04-21 10:20 | 26.68244 | -80.09165 | 23 ft | 157 kts | 90° |
| 2026-04-21 10:20 | 26.68152 | -80.07889 | 519 ft | 169 kts | 91° |
| 2026-04-21 10:20 | 26.68036 | -80.06542 | 1073 ft | 181 kts | 89° |
| 2026-04-21 10:21 | 26.68042 | -80.05127 | 1692 ft | 190 kts | 81° |
| 2026-04-21 10:21 | 26.68465 | -80.03693 | 2127 ft | 204 kts | 52° |
| 2026-04-21 10:21 | 26.69450 | -80.02447 | 2515 ft | 227 kts | 49° |
| 2026-04-21 10:21 | 26.70303 | -80.00867 | 2899 ft | 246 kts | 63° |
| 2026-04-21 10:22 | 26.71039 | -79.99137 | 3427 ft | 253 kts | 59° |
| 2026-04-21 10:22 | 26.72211 | -79.97671 | 4399 ft | 253 kts | 28° |
| 2026-04-21 10:22 | 26.73836 | -79.97104 | 5416 ft | 250 kts | 5° |
| 2026-04-21 10:22 | 26.75565 | -79.96918 | 6236 ft | 256 kts | 6° |
| 2026-04-21 10:23 | 26.77348 | -79.96733 | 7000 ft | 262 kts | 355° |
| 2026-04-21 10:23 | 26.79073 | -79.97303 | 7778 ft | 266 kts | 326° |
| 2026-04-21 10:23 | 26.80286 | -79.98829 | 8575 ft | 270 kts | 294° |
| 2026-04-21 10:23 | 26.80733 | -80.00859 | 9457 ft | 271 kts | 280° |
| 2026-04-21 10:24 | 26.81147 | -80.02921 | 10179 ft | 276 kts | 287° |
| 2026-04-21 10:24 | 26.81746 | -80.04961 | 10913 ft | 281 kts | 289° |
| 2026-04-21 10:24 | 26.82369 | -80.07038 | 11613 ft | 287 kts | 288° |
| 2026-04-21 10:24 | 26.83030 | -80.09226 | 11825 ft | 310 kts | 289° |
| 2026-04-21 10:25 | 26.83762 | -80.11614 | 12052 ft | 332 kts | 289° |
| 2026-04-21 10:25 | 26.84528 | -80.14101 | 12212 ft | 354 kts | 289° |
| 2026-04-21 10:25 | 26.85339 | -80.16734 | 12833 ft | 359 kts | 289° |
| 2026-04-21 10:25 | 26.86163 | -80.19405 | 13414 ft | 366 kts | 289° |
| 2026-04-21 10:26 | 26.86988 | -80.22086 | 14146 ft | 367 kts | 289° |
| 2026-04-21 10:26 | 26.87814 | -80.24770 | 14806 ft | 370 kts | 289° |
| 2026-04-21 10:26 | 26.88657 | -80.27507 | 15454 ft | 373 kts | 289° |
| 2026-04-21 10:26 | 26.89498 | -80.30244 | 16146 ft | 374 kts | 289° |
| 2026-04-21 10:27 | 26.90352 | -80.33023 | 16770 ft | 376 kts | 288° |
| 2026-04-21 10:27 | 26.91098 | -80.35796 | 17380 ft | 377 kts | 283° |
| 2026-04-21 10:27 | 26.91574 | -80.38701 | 17981 ft | 379 kts | 277° |
| 2026-04-21 10:27 | 26.91900 | -80.41602 | 18571 ft | 380 kts | 277° |
| 2026-04-21 10:28 | 26.92239 | -80.44528 | 19138 ft | 382 kts | 277° |
| 2026-04-21 10:28 | 26.92585 | -80.47497 | 19698 ft | 383 kts | 277° |
| 2026-04-21 10:28 | 26.92912 | -80.50441 | 20238 ft | 385 kts | 277° |
| 2026-04-21 10:28 | 26.93236 | -80.53401 | 20764 ft | 386 kts | 276° |
| 2026-04-21 10:29 | 26.93563 | -80.56402 | 21278 ft | 387 kts | 276° |
| 2026-04-21 10:29 | 26.93887 | -80.59398 | 21772 ft | 389 kts | 276° |
| 2026-04-21 10:29 | 26.94212 | -80.62403 | 22253 ft | 390 kts | 276° |
| 2026-04-21 10:29 | 26.94534 | -80.65404 | 22716 ft | 391 kts | 276° |
| 2026-04-21 10:30 | 26.94857 | -80.68431 | 23164 ft | 393 kts | 276° |
| 2026-04-21 10:30 | 26.95183 | -80.71484 | 23605 ft | 394 kts | 276° |
| 2026-04-21 10:30 | 26.95506 | -80.74515 | 24027 ft | 396 kts | 276° |
| 2026-04-21 10:30 | 26.95830 | -80.77585 | 24442 ft | 397 kts | 275° |
| 2026-04-21 10:31 | 26.96037 | -80.80679 | 24840 ft | 398 kts | 271° |
| 2026-04-21 10:31 | 26.96122 | -80.83780 | 25228 ft | 399 kts | 271° |
| 2026-04-21 10:31 | 26.96217 | -80.86855 | 25591 ft | 401 kts | 271° |
| 2026-04-21 10:31 | 26.96338 | -80.89992 | 25962 ft | 402 kts | 271° |
| 2026-04-21 10:32 | 26.96458 | -80.93127 | 26331 ft | 403 kts | 271° |
| 2026-04-21 10:32 | 26.96577 | -80.96273 | 26681 ft | 405 kts | 271° |
| 2026-04-21 10:32 | 26.96694 | -80.99403 | 27022 ft | 406 kts | 272° |
| 2026-04-21 10:32 | 26.96813 | -81.02539 | 27350 ft | 407 kts | 272° |
| 2026-04-21 10:33 | 26.96934 | -81.05711 | 27646 ft | 409 kts | 272° |
| 2026-04-21 10:33 | 26.97090 | -81.08932 | 27700 ft | 418 kts | 273° |
| 2026-04-21 10:33 | 26.97225 | -81.12234 | 27765 ft | 427 kts | 272° |
| 2026-04-21 10:33 | 26.97332 | -81.15546 | 27824 ft | 435 kts | 272° |
| 2026-04-21 10:34 | 26.97446 | -81.18954 | 27879 ft | 443 kts | 272° |
| 2026-04-21 10:34 | 26.97571 | -81.22448 | 27929 ft | 451 kts | 272° |
| 2026-04-21 10:34 | 26.97699 | -81.25995 | 28040 ft | 457 kts | 272° |
| 2026-04-21 10:34 | 26.97827 | -81.29536 | 28235 ft | 460 kts | 272° |
| 2026-04-21 10:35 | 26.98107 | -81.33102 | 28448 ft | 463 kts | 278° |
| 2026-04-21 10:35 | 26.98786 | -81.36647 | 28656 ft | 465 kts | 287° |
| 2026-04-21 10:35 | 26.99547 | -81.38918 | 28810 ft | 466 kts | 295° |
| 2026-04-21 10:35 | 27.01671 | -81.43068 | 29209 ft | 466 kts | 303° |
| 2026-04-21 10:36 | 27.03432 | -81.46131 | 29573 ft | 464 kts | 303° |
| 2026-04-21 10:36 | 27.05131 | -81.49165 | 29930 ft | 463 kts | 302° |
| 2026-04-21 10:36 | 27.06817 | -81.52211 | 30244 ft | 462 kts | 302° |
| 2026-04-21 10:36 | 27.08532 | -81.55288 | 30567 ft | 461 kts | 302° |
| 2026-04-21 10:37 | 27.10228 | -81.58313 | 30883 ft | 460 kts | 302° |
| 2026-04-21 10:37 | 27.11929 | -81.61343 | 31183 ft | 459 kts | 302° |
| 2026-04-21 10:37 | 27.13627 | -81.64368 | 31477 ft | 459 kts | 302° |
| 2026-04-21 10:37 | 27.15304 | -81.67356 | 31760 ft | 458 kts | 302° |
| 2026-04-21 10:38 | 27.17009 | -81.70395 | 32041 ft | 458 kts | 302° |
| 2026-04-21 10:38 | 27.18712 | -81.73428 | 32316 ft | 457 kts | 302° |
| 2026-04-21 10:38 | 27.20381 | -81.76402 | 32581 ft | 456 kts | 302° |
| 2026-04-21 10:38 | 27.22066 | -81.79408 | 32844 ft | 456 kts | 302° |
| 2026-04-21 10:39 | 27.23762 | -81.82431 | 33103 ft | 455 kts | 302° |
| 2026-04-21 10:39 | 27.25438 | -81.85422 | 33354 ft | 455 kts | 302° |
| 2026-04-21 10:39 | 27.27007 | -81.88493 | 33591 ft | 455 kts | 297° |
| 2026-04-21 10:39 | 27.28313 | -81.91705 | 33832 ft | 454 kts | 291° |
| 2026-04-21 10:40 | 27.29248 | -81.95061 | 34047 ft | 454 kts | 283° |
| 2026-04-21 10:40 | 27.29897 | -81.98518 | 34311 ft | 452 kts | 281° |
| 2026-04-21 10:40 | 27.30532 | -82.02013 | 34526 ft | 452 kts | 282° |
| 2026-04-21 10:40 | 27.31193 | -82.05418 | 34727 ft | 452 kts | 282° |
| 2026-04-21 10:41 | 27.31862 | -82.08851 | 34954 ft | 452 kts | 282° |
| 2026-04-21 10:41 | 27.32524 | -82.12314 | 35162 ft | 451 kts | 282° |
| 2026-04-21 10:41 | 27.33175 | -82.15767 | 35372 ft | 451 kts | 282° |
| 2026-04-21 10:41 | 27.33819 | -82.19196 | 35576 ft | 450 kts | 282° |
| 2026-04-21 10:42 | 27.34465 | -82.22642 | 35774 ft | 450 kts | 282° |
| 2026-04-21 10:42 | 27.35103 | -82.26058 | 35965 ft | 450 kts | 282° |
| 2026-04-21 10:42 | 27.35750 | -82.29528 | 35997 ft | 453 kts | 282° |
| 2026-04-21 10:43 | 27.37025 | -82.36399 | 36000 ft | 451 kts | 282° |
| 2026-04-21 10:43 | 27.38302 | -82.43310 | 36000 ft | 449 kts | 282° |
| 2026-04-21 10:44 | 27.39555 | -82.50119 | 36000 ft | 449 kts | 282° |
| 2026-04-21 10:44 | 27.40822 | -82.57019 | 36000 ft | 450 kts | 282° |
| 2026-04-21 10:45 | 27.42099 | -82.63854 | 36000 ft | 450 kts | 282° |
| 2026-04-21 10:45 | 27.43387 | -82.70733 | 35999 ft | 449 kts | 282° |
| 2026-04-21 10:46 | 27.44667 | -82.77610 | 36000 ft | 449 kts | 282° |
| 2026-04-21 10:46 | 27.45941 | -82.84468 | 36000 ft | 449 kts | 282° |
| 2026-04-21 10:47 | 27.47219 | -82.91373 | 36000 ft | 449 kts | 282° |
| 2026-04-21 10:47 | 27.48482 | -82.98216 | 36000 ft | 449 kts | 282° |
| 2026-04-21 10:48 | 27.49744 | -83.05077 | 36000 ft | 449 kts | 282° |
| 2026-04-21 10:48 | 27.51014 | -83.11999 | 36000 ft | 449 kts | 282° |
| 2026-04-21 10:49 | 27.52267 | -83.18846 | 36000 ft | 449 kts | 282° |
| 2026-04-21 10:49 | 27.53525 | -83.25745 | 36000 ft | 449 kts | 282° |
| 2026-04-21 10:50 | 27.54770 | -83.32595 | 36000 ft | 449 kts | 282° |
| 2026-04-21 10:50 | 27.56021 | -83.39498 | 36000 ft | 449 kts | 282° |
| 2026-04-21 10:51 | 27.57261 | -83.46357 | 36000 ft | 449 kts | 282° |
| 2026-04-21 10:51 | 27.58508 | -83.53278 | 36000 ft | 449 kts | 282° |
| 2026-04-21 10:52 | 27.59741 | -83.60136 | 35999 ft | 449 kts | 282° |
| 2026-04-21 10:52 | 27.60982 | -83.67064 | 36000 ft | 449 kts | 281° |
| 2026-04-21 10:53 | 27.62209 | -83.73935 | 36000 ft | 449 kts | 281° |
| 2026-04-21 10:53 | 27.63431 | -83.80798 | 35999 ft | 449 kts | 281° |
| 2026-04-21 10:54 | 27.64657 | -83.87701 | 36000 ft | 449 kts | 281° |
| 2026-04-21 10:54 | 27.65884 | -83.94634 | 36000 ft | 449 kts | 281° |
| 2026-04-21 10:55 | 27.67093 | -84.01486 | 36000 ft | 449 kts | 281° |
| 2026-04-21 10:55 | 27.68310 | -84.08403 | 36000 ft | 449 kts | 281° |
| 2026-04-21 10:56 | 27.69516 | -84.15280 | 35999 ft | 449 kts | 281° |
| 2026-04-21 10:56 | 27.70722 | -84.22179 | 36000 ft | 449 kts | 281° |
| 2026-04-21 10:57 | 27.71931 | -84.29112 | 35999 ft | 449 kts | 281° |
| 2026-04-21 10:57 | 27.73133 | -84.36028 | 35999 ft | 449 kts | 281° |
| 2026-04-21 10:58 | 27.74329 | -84.42930 | 35999 ft | 449 kts | 281° |
| 2026-04-21 10:58 | 27.75521 | -84.49831 | 35999 ft | 449 kts | 281° |
| 2026-04-21 10:59 | 27.76708 | -84.56724 | 35999 ft | 449 kts | 281° |
| 2026-04-21 10:59 | 27.77892 | -84.63625 | 35999 ft | 449 kts | 281° |
| 2026-04-21 11:00 | 27.79076 | -84.70538 | 36000 ft | 449 kts | 281° |
| 2026-04-21 11:00 | 27.80261 | -84.77486 | 35999 ft | 449 kts | 281° |
| 2026-04-21 11:01 | 27.81433 | -84.84377 | 36000 ft | 449 kts | 281° |
| 2026-04-21 11:01 | 27.82606 | -84.91284 | 36000 ft | 449 kts | 281° |
| 2026-04-21 11:02 | 27.84360 | -85.01664 | 36000 ft | 449 kts | 281° |
| 2026-04-21 11:02 | 27.85526 | -85.08587 | 35999 ft | 449 kts | 281° |
| 2026-04-21 11:03 | 27.86686 | -85.15496 | 36000 ft | 449 kts | 281° |
| 2026-04-21 11:03 | 27.87851 | -85.22453 | 35999 ft | 449 kts | 281° |
| 2026-04-21 11:04 | 27.89450 | -85.29253 | 36001 ft | 449 kts | 289° |
| 2026-04-21 11:04 | 27.91513 | -85.35899 | 35999 ft | 450 kts | 289° |
| 2026-04-21 11:05 | 27.93502 | -85.42554 | 35999 ft | 449 kts | 289° |
| 2026-04-21 11:05 | 27.95509 | -85.49215 | 35999 ft | 449 kts | 289° |
| 2026-04-21 11:06 | 27.97517 | -85.55890 | 35999 ft | 449 kts | 289° |
| 2026-04-21 11:06 | 27.99529 | -85.62585 | 35999 ft | 449 kts | 289° |
| 2026-04-21 11:07 | 28.01535 | -85.69268 | 35999 ft | 449 kts | 289° |
| 2026-04-21 11:07 | 28.03536 | -85.75948 | 36000 ft | 449 kts | 289° |
| 2026-04-21 11:08 | 28.05524 | -85.82592 | 36000 ft | 449 kts | 289° |
| 2026-04-21 11:08 | 28.07526 | -85.89300 | 36000 ft | 449 kts | 289° |
| 2026-04-21 11:09 | 28.09513 | -85.95970 | 36000 ft | 449 kts | 289° |
| 2026-04-21 11:09 | 28.11504 | -86.02666 | 36000 ft | 449 kts | 288° |
| 2026-04-21 11:10 | 28.13486 | -86.09347 | 36000 ft | 449 kts | 288° |
| 2026-04-21 11:10 | 28.15460 | -86.16014 | 36000 ft | 449 kts | 288° |
| 2026-04-21 11:11 | 28.17433 | -86.22689 | 36000 ft | 449 kts | 288° |
| 2026-04-21 11:11 | 28.19414 | -86.29405 | 36000 ft | 449 kts | 288° |
| 2026-04-21 11:12 | 28.21381 | -86.36087 | 36000 ft | 449 kts | 288° |
| 2026-04-21 11:12 | 28.23347 | -86.42780 | 35999 ft | 449 kts | 288° |
| 2026-04-21 11:13 | 28.25310 | -86.49475 | 36000 ft | 449 kts | 288° |
| 2026-04-21 11:13 | 28.27272 | -86.56180 | 36000 ft | 449 kts | 288° |
| 2026-04-21 11:14 | 28.29227 | -86.62878 | 36000 ft | 449 kts | 288° |
| 2026-04-21 11:14 | 28.31180 | -86.69582 | 35999 ft | 449 kts | 288° |
| 2026-04-21 11:15 | 28.33152 | -86.76324 | 36000 ft | 449 kts | 288° |
| 2026-04-21 11:15 | 28.35109 | -86.82999 | 36000 ft | 449 kts | 288° |
| 2026-04-21 11:16 | 28.37075 | -86.89726 | 35999 ft | 449 kts | 288° |
| 2026-04-21 11:16 | 28.39027 | -86.96422 | 36000 ft | 449 kts | 288° |
| 2026-04-21 11:17 | 28.40989 | -87.03162 | 36000 ft | 449 kts | 288° |
| 2026-04-21 11:17 | 28.42930 | -87.09846 | 36000 ft | 449 kts | 288° |
| 2026-04-21 11:18 | 28.44886 | -87.16597 | 36000 ft | 449 kts | 288° |
| 2026-04-21 11:18 | 28.46830 | -87.23317 | 35999 ft | 449 kts | 288° |
| 2026-04-21 11:19 | 28.48770 | -87.30038 | 36000 ft | 449 kts | 288° |
| 2026-04-21 11:19 | 28.50705 | -87.36758 | 35999 ft | 449 kts | 288° |
| 2026-04-21 11:20 | 28.52636 | -87.43478 | 36000 ft | 449 kts | 288° |
| 2026-04-21 11:20 | 28.54570 | -87.50220 | 35999 ft | 449 kts | 288° |
| 2026-04-21 11:21 | 28.56492 | -87.56936 | 35999 ft | 449 kts | 288° |
| 2026-04-21 11:21 | 28.58411 | -87.63654 | 35999 ft | 449 kts | 288° |
| 2026-04-21 11:22 | 28.60342 | -87.70431 | 36000 ft | 449 kts | 288° |
| 2026-04-21 11:22 | 28.62256 | -87.77160 | 36000 ft | 449 kts | 288° |
| 2026-04-21 11:23 | 28.64170 | -87.83902 | 35999 ft | 449 kts | 288° |
| 2026-04-21 11:23 | 28.66078 | -87.90639 | 36000 ft | 449 kts | 288° |
| 2026-04-21 11:24 | 28.67986 | -87.97389 | 36000 ft | 449 kts | 288° |
| 2026-04-21 11:24 | 28.69887 | -88.04131 | 35999 ft | 449 kts | 288° |
| 2026-04-21 11:25 | 28.71792 | -88.10900 | 36000 ft | 449 kts | 288° |
| 2026-04-21 11:25 | 28.73685 | -88.17643 | 36000 ft | 449 kts | 288° |
| 2026-04-21 11:26 | 28.75578 | -88.24401 | 35999 ft | 449 kts | 288° |
| 2026-04-21 11:26 | 28.77470 | -88.31167 | 35999 ft | 449 kts | 288° |
| 2026-04-21 11:27 | 28.79349 | -88.37903 | 35999 ft | 449 kts | 288° |
| 2026-04-21 11:27 | 28.81233 | -88.44670 | 35999 ft | 449 kts | 288° |
| 2026-04-21 11:28 | 28.83122 | -88.51472 | 35999 ft | 449 kts | 288° |
| 2026-04-21 11:28 | 28.84999 | -88.58244 | 35999 ft | 449 kts | 288° |
| 2026-04-21 11:29 | 28.86861 | -88.64977 | 35999 ft | 449 kts | 288° |
| 2026-04-21 11:29 | 28.89063 | -88.71654 | 36001 ft | 449 kts | 296° |
| 2026-04-21 11:30 | 28.91803 | -88.78020 | 36000 ft | 449 kts | 296° |
| 2026-04-21 11:30 | 28.94563 | -88.84383 | 36000 ft | 449 kts | 296° |
| 2026-04-21 11:31 | 28.97327 | -88.90730 | 35999 ft | 449 kts | 296° |
| 2026-04-21 11:31 | 29.00097 | -88.97088 | 36000 ft | 449 kts | 296° |
| 2026-04-21 11:32 | 29.02880 | -89.03481 | 35999 ft | 449 kts | 296° |
| 2026-04-21 11:32 | 29.05648 | -89.09846 | 36000 ft | 449 kts | 296° |
| 2026-04-21 11:33 | 29.08419 | -89.16225 | 35999 ft | 449 kts | 296° |
| 2026-04-21 11:33 | 29.11185 | -89.22602 | 36000 ft | 449 kts | 296° |
| 2026-04-21 11:34 | 29.13947 | -89.28977 | 36000 ft | 449 kts | 296° |
| 2026-04-21 11:34 | 29.16711 | -89.35368 | 36000 ft | 449 kts | 296° |
| 2026-04-21 11:35 | 29.19461 | -89.41740 | 36000 ft | 449 kts | 296° |
| 2026-04-21 11:35 | 29.22230 | -89.48162 | 35999 ft | 449 kts | 296° |
| 2026-04-21 11:36 | 29.24962 | -89.54511 | 36000 ft | 449 kts | 296° |
| 2026-04-21 11:36 | 29.27711 | -89.60909 | 36000 ft | 449 kts | 296° |
| 2026-04-21 11:37 | 29.30469 | -89.67339 | 35999 ft | 449 kts | 296° |
| 2026-04-21 11:37 | 29.33203 | -89.73722 | 35999 ft | 449 kts | 296° |
| 2026-04-21 11:38 | 29.35946 | -89.80138 | 35999 ft | 449 kts | 296° |
| 2026-04-21 11:38 | 29.38688 | -89.86564 | 35999 ft | 449 kts | 296° |
| 2026-04-21 11:39 | 29.41419 | -89.92973 | 35999 ft | 449 kts | 296° |
| 2026-04-21 11:39 | 29.44136 | -89.99360 | 35999 ft | 449 kts | 296° |
| 2026-04-21 11:40 | 29.46873 | -90.05804 | 35999 ft | 448 kts | 296° |
| 2026-04-21 11:40 | 29.50086 | -90.11911 | 36002 ft | 448 kts | 308° |
| 2026-04-21 11:41 | 29.53905 | -90.17522 | 36000 ft | 448 kts | 307° |
| 2026-04-21 11:41 | 29.57595 | -90.23244 | 35999 ft | 448 kts | 307° |
| 2026-04-21 11:42 | 29.61295 | -90.28983 | 35999 ft | 448 kts | 307° |
| 2026-04-21 11:42 | 29.64990 | -90.34750 | 35999 ft | 448 kts | 306° |
| 2026-04-21 11:43 | 29.68671 | -90.40514 | 35999 ft | 448 kts | 306° |
| 2026-04-21 11:43 | 29.72342 | -90.46276 | 35999 ft | 448 kts | 306° |
| 2026-04-21 11:44 | 29.76009 | -90.52043 | 35999 ft | 448 kts | 306° |
| 2026-04-21 11:44 | 29.79673 | -90.57816 | 35999 ft | 448 kts | 306° |
| 2026-04-21 11:45 | 29.83356 | -90.63625 | 35999 ft | 448 kts | 306° |
| 2026-04-21 11:45 | 29.86996 | -90.69378 | 36000 ft | 448 kts | 306° |
| 2026-04-21 11:46 | 29.90650 | -90.75160 | 36000 ft | 448 kts | 306° |
| 2026-04-21 11:46 | 29.94309 | -90.80958 | 36000 ft | 448 kts | 306° |
| 2026-04-21 11:47 | 29.97968 | -90.86766 | 36000 ft | 448 kts | 306° |
| 2026-04-21 11:47 | 30.01622 | -90.92573 | 36000 ft | 448 kts | 306° |
| 2026-04-21 11:48 | 30.05286 | -90.98405 | 36000 ft | 448 kts | 306° |
| 2026-04-21 11:48 | 30.08923 | -91.04203 | 35999 ft | 448 kts | 306° |
| 2026-04-21 11:49 | 30.12568 | -91.10021 | 36000 ft | 448 kts | 306° |
| 2026-04-21 11:49 | 30.16198 | -91.15824 | 36000 ft | 448 kts | 306° |
| 2026-04-21 11:50 | 30.19831 | -91.21640 | 36000 ft | 448 kts | 306° |
| 2026-04-21 11:50 | 30.23463 | -91.27464 | 36000 ft | 448 kts | 306° |
| 2026-04-21 11:51 | 30.27101 | -91.33305 | 36000 ft | 448 kts | 306° |
| 2026-04-21 11:51 | 30.30746 | -91.39164 | 36000 ft | 448 kts | 306° |
| 2026-04-21 11:52 | 30.34378 | -91.45013 | 36000 ft | 448 kts | 306° |
| 2026-04-21 11:52 | 30.37990 | -91.50837 | 36000 ft | 448 kts | 306° |
| 2026-04-21 11:53 | 30.41625 | -91.56708 | 36000 ft | 448 kts | 306° |
| 2026-04-21 11:53 | 30.45228 | -91.62534 | 36000 ft | 448 kts | 306° |
| 2026-04-21 11:54 | 30.48859 | -91.68415 | 36000 ft | 448 kts | 305° |
| 2026-04-21 11:54 | 30.52460 | -91.74255 | 35999 ft | 448 kts | 305° |
| 2026-04-21 11:55 | 30.56075 | -91.80127 | 36000 ft | 448 kts | 305° |
| 2026-04-21 11:55 | 30.59687 | -91.86004 | 36000 ft | 448 kts | 305° |
| 2026-04-21 11:56 | 30.63293 | -91.91878 | 36000 ft | 448 kts | 305° |
| 2026-04-21 11:56 | 30.66902 | -91.97765 | 35999 ft | 448 kts | 305° |
| 2026-04-21 11:57 | 30.70508 | -92.03657 | 36000 ft | 448 kts | 305° |
| 2026-04-21 11:57 | 30.74100 | -92.09536 | 36000 ft | 448 kts | 305° |
| 2026-04-21 11:58 | 30.77697 | -92.15431 | 35999 ft | 448 kts | 305° |
| 2026-04-21 11:58 | 30.81297 | -92.21339 | 35999 ft | 448 kts | 305° |
| 2026-04-21 11:59 | 30.84877 | -92.27224 | 35999 ft | 448 kts | 305° |
| 2026-04-21 11:59 | 30.88470 | -92.33138 | 35999 ft | 448 kts | 305° |
| 2026-04-21 12:00 | 30.92069 | -92.39072 | 35999 ft | 448 kts | 305° |
| 2026-04-21 12:00 | 30.95635 | -92.44960 | 35999 ft | 448 kts | 305° |
| 2026-04-21 12:01 | 30.99231 | -92.50905 | 35999 ft | 448 kts | 305° |
| 2026-04-21 12:01 | 31.02801 | -92.56818 | 35999 ft | 448 kts | 305° |
| 2026-04-21 12:02 | 31.08159 | -92.65707 | 35999 ft | 448 kts | 305° |
| 2026-04-21 12:03 | 31.11748 | -92.71672 | 35999 ft | 448 kts | 305° |
| 2026-04-21 12:03 | 31.15316 | -92.77613 | 35999 ft | 448 kts | 305° |
| 2026-04-21 12:04 | 31.18885 | -92.83562 | 35999 ft | 448 kts | 305° |
| 2026-04-21 12:04 | 31.22427 | -92.89478 | 35999 ft | 448 kts | 305° |
| 2026-04-21 12:05 | 31.26003 | -92.95458 | 36000 ft | 448 kts | 305° |
| 2026-04-21 12:05 | 31.29566 | -93.01425 | 36000 ft | 448 kts | 305° |
| 2026-04-21 12:06 | 31.33102 | -93.07358 | 36000 ft | 448 kts | 305° |
| 2026-04-21 12:06 | 31.36659 | -93.13333 | 36000 ft | 448 kts | 305° |
| 2026-04-21 12:07 | 31.40218 | -93.19321 | 36000 ft | 448 kts | 305° |
| 2026-04-21 12:07 | 31.43775 | -93.25314 | 36000 ft | 448 kts | 305° |
| 2026-04-21 12:08 | 31.47301 | -93.31267 | 36000 ft | 448 kts | 305° |
| 2026-04-21 12:08 | 31.50845 | -93.37258 | 35999 ft | 448 kts | 305° |
| 2026-04-21 12:09 | 31.54375 | -93.43233 | 36000 ft | 448 kts | 305° |
| 2026-04-21 12:09 | 31.57907 | -93.49243 | 35999 ft | 448 kts | 303° |
| 2026-04-21 12:10 | 31.60877 | -93.55622 | 35998 ft | 448 kts | 292° |
| 2026-04-21 12:10 | 31.62738 | -93.62577 | 36000 ft | 448 kts | 287° |
| 2026-04-21 12:11 | 31.64542 | -93.69569 | 35999 ft | 448 kts | 287° |
| 2026-04-21 12:11 | 31.66345 | -93.76592 | 36000 ft | 448 kts | 286° |
| 2026-04-21 12:12 | 31.68104 | -93.83546 | 36000 ft | 448 kts | 286° |
| 2026-04-21 12:12 | 31.69866 | -93.90547 | 36000 ft | 448 kts | 286° |
| 2026-04-21 12:13 | 31.71622 | -93.97565 | 35999 ft | 448 kts | 286° |
| 2026-04-21 12:13 | 31.73368 | -94.04569 | 35999 ft | 448 kts | 286° |
| 2026-04-21 12:14 | 31.75107 | -94.11568 | 36000 ft | 448 kts | 286° |
| 2026-04-21 12:14 | 31.76848 | -94.18594 | 36000 ft | 448 kts | 286° |
| 2026-04-21 12:15 | 31.78578 | -94.25597 | 35999 ft | 448 kts | 286° |
| 2026-04-21 12:15 | 31.80309 | -94.32623 | 35999 ft | 448 kts | 286° |
| 2026-04-21 12:16 | 31.82031 | -94.39629 | 35999 ft | 448 kts | 286° |
| 2026-04-21 12:16 | 31.83750 | -94.46645 | 35999 ft | 448 kts | 286° |
| 2026-04-21 12:17 | 31.85461 | -94.53642 | 35999 ft | 448 kts | 286° |
| 2026-04-21 12:17 | 31.87172 | -94.60663 | 35999 ft | 448 kts | 286° |
| 2026-04-21 12:18 | 31.88886 | -94.67712 | 36000 ft | 448 kts | 285° |
| 2026-04-21 12:18 | 31.90584 | -94.74709 | 36000 ft | 448 kts | 285° |
| 2026-04-21 12:19 | 31.92292 | -94.81771 | 36000 ft | 448 kts | 285° |